• Join FlightAware (Why Join?)
  • Login
  • US Flag 
05:10AM EST


 

Airport Tracker/Info


-or-


 

Live Flight TrackerFlight Track Log ✈ DAL268 ✈ 03-May-2013 ✈ KATL - KJFK

Flight Track Log - Related Links

Times and Time Zones

All times are in EDT time to prevent confusion due to time zone crossing. See the DAL268 flight status page for this flight to view local times or setup timezone preferences in your user account.

Time Position Orientation Groundspeed Altitude Reporting Facility
EDT Latitude Longitude Course Direction KTS MPH feet Rate Location/Type
06:23PM 33.6331 -84.3681 64° Northeast 445 512 2,600  Level Atlanta Center
06:24PM 33.6333 -84.3500 89° East 211 243 3,000 2,580 Climbing Atlanta TRACON
06:25PM 33.6333 -84.2667 90° East 233 268 6,000 2,520 Climbing Atlanta TRACON
06:26PM 33.6947 -83.9008 101° East  Level FlightAware Approximate
06:26PM 33.6314 -84.1361 91° East 271 312 9,900  Level Atlanta Center
06:27PM 33.6729 -83.7705 101° East  Level FlightAware Approximate
06:27PM 33.6378 -84.0389 85° East 278 320 11,200  Level Atlanta Center
06:28PM 33.6511 -83.6402 101° East  Level FlightAware Approximate
06:28PM 33.6439 -83.9192 86° East 328 377 12,200  Level Atlanta Center
06:29PM 33.6962 -83.5204 64° Northeast  Level FlightAware Approximate
06:29PM 33.6500 -83.7842 87° East 387 445 14,200  Level Atlanta Center
06:30PM 33.6622 -83.6394 84° East 419 482 15,900 1,800 Climbing Atlanta Center
06:31PM 33.7158 -83.5044 64° Northeast 432 497 17,800 1,860 Climbing Atlanta Center
06:32PM 33.7694 -83.3667 65° Northeast 449 517 19,700 1,740 Climbing Atlanta Center
06:33PM 33.8269 -83.2236 64° Northeast 462 532 21,300 1,440 Climbing Atlanta Center
06:34PM 33.8906 -83.0653 64° Northeast 462 532 22,600 1,380 Climbing Atlanta Center
06:35PM 33.9497 -82.9169 64° Northeast 478 550 24,100 1,500 Climbing Atlanta Center
06:36PM 34.0108 -82.7658 64° Northeast 484 557 25,600 1,440 Climbing Atlanta Center
06:37PM 34.0700 -82.6194 64° Northeast 490 564 27,000 1,320 Climbing Atlanta Center
06:38PM 34.1225 -82.4856 65° Northeast 490 564 28,300 1,140 Climbing Atlanta Center
06:39PM 34.1792 -82.3389 65° Northeast 490 564 29,300 780 Climbing Atlanta Center
06:40PM 34.2375 -82.1919 64° Northeast 483 556 29,900 720 Climbing Atlanta Center
06:41PM 34.3042 -82.0497 60° Northeast 483 556 30,800 720 Climbing Atlanta Center
06:42PM 34.3747 -81.9072 59° Northeast 488 562 31,400 480 Climbing Atlanta Center
06:43PM 34.4453 -81.7667 59° Northeast 488 562 31,800 420 Climbing Atlanta Center
06:44PM 34.5136 -81.6264 59° Northeast 483 556 32,300 360 Climbing Atlanta Center
06:45PM 34.5858 -81.4853 58° Northeast 483 556 32,600 300 Climbing Atlanta Center
06:46PM 34.6617 -81.3292 59° Northeast 483 556 32,900 180 Climbing Atlanta Center
06:47PM 34.7317 -81.1853 59° Northeast 483 556 33,000  Climbing Atlanta Center
06:48PM 34.8011 -81.0411 60° Northeast 490 564 33,000  Level Atlanta Center
06:49PM 34.8706 -80.8994 59° Northeast 495 570 33,000  Level Atlanta Center
06:50PM 34.9400 -80.7550 60° Northeast 495 570 33,000  Level Atlanta Center
06:53PM 35.1031 -80.4156 60° Northeast 499 574 33,000  Level Washington Center
06:54PM 35.1692 -80.2747 60° Northeast 487 560 33,000  Level Washington Center
06:55PM 35.2417 -80.1314 58° Northeast 481 554 33,000  Level Washington Center
06:56PM 35.3072 -79.9928 60° Northeast 475 547 33,000  Level Washington Center
06:57PM 35.3750 -79.8511 60° Northeast 475 547 33,000  Level Washington Center
06:58PM 35.4428 -79.7044 60° Northeast 475 547 33,000  Level Washington Center
06:59PM 35.5122 -79.5625 59° Northeast 475 547 33,000  Level Washington Center
07:00PM 35.5775 -79.4203 61° Northeast 475 547 33,000  Level Washington Center
07:01PM 35.6444 -79.2778 60° Northeast 470 541 33,000  Level Washington Center
07:02PM 35.7114 -79.1350 60° Northeast 470 541 33,000  Level Washington Center
07:03PM 35.7803 -78.9894 60° Northeast 470 541 33,000  Level Washington Center
07:04PM 35.8469 -78.8464 60° Northeast 470 541 33,000  Level Washington Center
07:05PM 35.8844 -78.6864 74° East 470 541 33,000  Level Washington Center
07:06PM 35.9011 -78.5203 83° East 476 548 33,000  Level Washington Center
07:07PM 35.9178 -78.3542 83° East 482 555 33,000  Level Washington Center
07:08PM 35.9319 -78.1856 84° East 482 555 33,000  Level Washington Center
07:09PM 35.9450 -78.0525 83° East 482 555 33,000  Level Washington Center
07:10PM 35.9611 -77.8733 84° East 482 555 33,000  Level Washington Center
07:11PM 35.9831 -77.7044 81° East 482 555 33,000  Level Washington Center
07:12PM 36.0606 -77.5678 55° Northeast 468 539 33,000  Level Washington Center
07:13PM 36.1417 -77.4414 52° Northeast 468 539 33,000  Level Washington Center
07:14PM 36.2208 -77.3092 53° Northeast 468 539 33,000  Level Washington Center
07:15PM 36.3022 -77.1744 53° Northeast 475 547 33,000  Level Washington Center
07:16PM 36.3853 -77.0419 52° Northeast 475 547 33,000  Level Washington Center
07:17PM 36.4639 -76.9092 54° Northeast 480 552 33,000 -60 Level Washington Center
07:18PM 36.5425 -76.7786 53° Northeast 480 552 32,900 -60 Descending Washington Center
07:19PM 36.5731 -76.6161 77° East 461 531 32,900  Level Washington Center
07:20PM 36.5931 -76.4508 81° East 461 531 32,900  Level Washington Center
07:21PM 36.6733 -76.3300 50° Northeast 445 512 33,000  Climbing Washington Center
07:22PM 36.7864 -76.2583 27° Northeast 419 482 33,000  Level Washington Center
07:23PM 36.8972 -76.1892 27° Northeast 430 495 33,000  Level Washington Center
07:24PM 37.0247 -76.1200 23° Northeast 450 518 33,000  Level Washington Center
07:25PM 37.1336 -76.0503 27° Northeast 445 512 33,000  Level Washington Center
07:26PM 37.2444 -75.9806 27° Northeast 434 499 33,000  Level Washington Center
07:27PM 37.3553 -75.9106 27° Northeast 434 499 33,000  Level Washington Center
07:28PM 37.4639 -75.8431 26° Northeast 428 493 33,000  Level Washington Center
07:29PM 37.5744 -75.7753 26° Northeast 428 493 33,000  Level Washington Center
07:30PM 37.6831 -75.7047 27° Northeast 428 493 33,000  Level Washington Center
07:31PM 37.7936 -75.6364 26° Northeast 428 493 33,000  Level Washington Center
07:32PM 37.9000 -75.5708 26° Northeast 428 493 33,000  Level Washington Center
07:33PM 38.0103 -75.4969 28° Northeast 428 493 33,000  Level Washington Center
07:34PM 38.1167 -75.4281 27° Northeast 428 493 33,000  Level Washington Center
07:35PM 38.2272 -75.3644 24° Northeast 428 493 33,000  Level Washington Center
07:36PM 38.3228 -75.2981 29° Northeast 423 487 33,000  Level Washington Center
07:37PM 38.4289 -75.2286 27° Northeast 428 493 33,000  Level Washington Center
07:38PM 38.5372 -75.1644 25° Northeast 428 493 33,000  Level Washington Center
07:39PM 38.6433 -75.0919 28° Northeast 428 493 33,000 -60 Level Washington Center
07:40PM 38.7514 -75.0272 25° Northeast 428 493 32,900  Descending Washington Center
07:41PM 38.8594 -74.9544 28° Northeast 423 487 33,000 -60 Climbing Washington Center
07:42PM 38.9653 -74.8867 26° Northeast 423 487 32,800 -1,260 Descending Washington Center
07:43PM 39.0692 -74.8189 27° Northeast 423 487 30,500 -2,280 Descending Washington Center
07:44PM 39.1706 -74.7214 37° Northeast 436 502 28,300 -2,160 Descending Washington Center
07:45PM 39.2594 -74.6239 40° Northeast 436 502 26,300 -2,160 Descending Washington Center
07:45PM 39.3275 -74.5525 39° Northeast 436 502 24,600 -2,220 Descending New York Center
07:46PM 39.4097 -74.4600 41° Northeast 425 489 22,400 -2,280 Descending New York Center
07:47PM 39.4917 -74.3703 40° Northeast 402 463 20,100 -2,160 Descending New York Center
07:48PM 39.5781 -74.2722 41° Northeast 374 430 18,100 -1,200 Descending New York Center
07:49PM 39.6492 -74.1978 39° Northeast 367 422 17,700 -1,020 Descending New York Center
07:50PM 39.7267 -74.1125 40° Northeast 367 422 16,100 -2,100 Descending New York Center
07:51PM 39.8083 -74.0217 40° Northeast 367 422 13,600 -2,220 Descending New York Center
07:52PM 39.8872 -73.9522 34° Northeast 355 409 11,600 -1,380 Descending New York Center
07:53PM 39.9681 -73.8964 28° Northeast 331 381 10,900 -360 Descending New York Center
07:54PM 40.0236 -73.8419 37° Northeast 291 335 11,000  Climbing New York Center
07:55PM 40.0736 -73.7656 49° Northeast 274 315 11,000 -780 Level New York Center
07:56PM 40.1319 -73.6867 46° Northeast 274 315 9,500 -1,560 Descending New York Center
07:57PM 40.1667 -73.6667 24° Northeast 273 314 8,800 -1,560 Descending New York TRACON
07:58PM 40.2167 -73.7500 308° West 287 330 7,300 -1,620 Descending New York TRACON
07:59PM 40.2500 -73.8333 298° West 286 329 5,800 -1,500 Descending New York TRACON
07:59PM 40.2642 -73.8881 289° West 278 320 5,000 -1,020 Descending New York Center
08:00PM 40.2911 -73.9683 294° West 260 299 4,100 -900 Descending New York Center
08:01PM 40.3225 -74.0458 298° West 250 288 3,200 -600 Descending New York Center
08:02PM 40.3719 -74.0592 348° North 175 201 3,000 -180 Descending New York Center
08:03PM 40.3833 -74.0667 333° Northwest 180 207 3,000  Level New York TRACON
08:04PM 40.4333 -74.0333 27° Northeast 160 184 3,000  Level New York TRACON
08:05PM 40.4667 -74.0167 21° North 164 189 3,000  Level New York TRACON
08:06PM 40.5167 -73.9833 27° Northeast 162 186 3,000 -240 Level New York TRACON
08:07PM 40.5500 -73.9500 37° Northeast 162 186 2,600 -780 Descending New York TRACON
08:08PM 40.5833 -73.9167 37° Northeast 171 197 1,500 -1,140 Descending New York TRACON